createdAt,value
2023-08-07T00:00:12.063Z,14.56
2023-08-07T00:03:03.698Z,14.52
2023-08-07T00:05:35.839Z,14.51
2023-08-07T00:08:07.777Z,14.52
2023-08-07T00:10:39.248Z,14.51
2023-08-07T00:13:11.095Z,14.49
2023-08-07T00:15:42.712Z,14.48
2023-08-07T00:18:14.230Z,14.47
2023-08-07T00:20:45.817Z,14.46
2023-08-07T00:23:17.396Z,14.44
2023-08-07T00:25:49.096Z,14.44
2023-08-07T00:28:20.625Z,14.42
2023-08-07T00:30:52.107Z,14.39
2023-08-07T00:33:23.989Z,14.37
2023-08-07T00:35:55.525Z,14.38
2023-08-07T00:38:27.072Z,14.38
2023-08-07T00:40:58.552Z,14.38
2023-08-07T00:43:30.135Z,14.38
2023-08-07T00:46:01.729Z,14.37
2023-08-07T00:48:34.835Z,14.38
2023-08-07T00:51:09.073Z,14.36
2023-08-07T00:53:42.455Z,14.34
2023-08-07T00:56:14.190Z,14.31
2023-08-07T00:58:45.957Z,14.30
2023-08-07T01:01:17.613Z,14.31
2023-08-07T01:03:49.143Z,14.32
2023-08-07T01:06:20.666Z,14.32
2023-08-07T01:08:52.635Z,14.32
2023-08-07T01:11:36.943Z,14.33
2023-08-07T01:14:15.852Z,14.32
2023-08-07T01:16:50.780Z,14.31
2023-08-07T01:19:27.266Z,14.31
2023-08-07T01:22:10.074Z,14.30
2023-08-07T01:24:44.056Z,14.28
2023-08-07T01:27:30.470Z,14.28
2023-08-07T01:30:20.731Z,14.30
2023-08-07T01:33:01.041Z,14.32
2023-08-07T01:35:36.966Z,14.34
2023-08-07T01:38:09.335Z,14.35
2023-08-07T01:40:41.827Z,14.36
2023-08-07T01:43:13.360Z,14.34
2023-08-07T01:45:45.033Z,14.34
2023-08-07T01:48:16.704Z,14.32
2023-08-07T01:50:48.820Z,14.30
2023-08-07T01:53:20.298Z,14.27
2023-08-07T01:55:51.811Z,14.25
2023-08-07T01:58:23.572Z,14.24
2023-08-07T02:00:55.084Z,14.25
2023-08-07T02:03:26.745Z,14.24
2023-08-07T02:05:58.493Z,14.22
2023-08-07T02:08:29.988Z,14.21
2023-08-07T02:11:02.524Z,14.19
2023-08-07T02:13:34.066Z,14.16
2023-08-07T02:16:05.742Z,14.13
2023-08-07T02:18:37.857Z,14.10
2023-08-07T02:21:09.402Z,14.07
2023-08-07T02:23:41.478Z,14.09
2023-08-07T02:26:13.545Z,14.10
2023-08-07T02:28:45.088Z,14.11
2023-08-07T02:31:16.802Z,14.13
2023-08-07T02:33:48.333Z,14.13
2023-08-07T02:36:20.296Z,14.14
2023-08-07T02:38:51.743Z,14.13
2023-08-07T02:41:23.269Z,14.11
2023-08-07T02:43:54.764Z,14.10
2023-08-07T02:46:26.305Z,14.09
2023-08-07T02:48:57.860Z,14.06
2023-08-07T02:51:29.498Z,14.04
2023-08-07T02:54:01.030Z,14.06
2023-08-07T02:56:34.098Z,14.07
2023-08-07T02:59:06.525Z,14.08
2023-08-07T03:01:38.084Z,14.10
2023-08-07T03:04:09.812Z,14.10
2023-08-07T03:06:41.337Z,14.12
2023-08-07T03:09:12.873Z,14.12
2023-08-07T03:11:44.361Z,14.11
2023-08-07T03:14:15.861Z,14.11
2023-08-07T03:16:48.467Z,14.09
2023-08-07T03:19:22.632Z,14.08
2023-08-07T03:21:54.251Z,14.08
2023-08-07T03:24:25.759Z,14.09
2023-08-07T03:26:57.379Z,14.11
2023-08-07T03:29:29.276Z,14.12
2023-08-07T03:32:00.807Z,14.12
2023-08-07T03:34:32.362Z,14.13
2023-08-07T03:37:04.255Z,14.12
2023-08-07T03:39:35.813Z,14.12
2023-08-07T03:42:08.583Z,14.10
2023-08-07T03:44:38.539Z,14.08
2023-08-07T03:47:10.233Z,14.06
2023-08-07T03:49:41.769Z,14.02
2023-08-07T03:52:13.266Z,14.00
2023-08-07T03:54:44.723Z,14.01
2023-08-07T03:57:16.254Z,14.01
2023-08-07T03:59:47.925Z,14.01
2023-08-07T04:02:19.449Z,14.01
2023-08-07T04:04:51.050Z,14.01
2023-08-07T04:07:22.527Z,14.00
2023-08-07T04:09:54.332Z,14.00
2023-08-07T04:12:25.981Z,13.98
2023-08-07T04:14:57.693Z,13.96
2023-08-07T04:17:29.262Z,13.96
2023-08-07T04:20:00.883Z,13.95
2023-08-07T04:22:32.632Z,13.94
2023-08-07T04:25:04.688Z,13.97
2023-08-07T04:27:36.156Z,13.98
2023-08-07T04:30:09.629Z,14.00
2023-08-07T04:32:41.835Z,14.03
2023-08-07T04:35:13.613Z,14.02
2023-08-07T04:37:45.069Z,14.03
2023-08-07T04:40:16.911Z,14.03
2023-08-07T04:42:48.453Z,14.04
2023-08-07T04:45:20.051Z,14.05
2023-08-07T04:47:51.946Z,14.04
2023-08-07T04:50:24.323Z,14.02
2023-08-07T04:52:55.813Z,14.01
2023-08-07T04:55:27.324Z,14.04
2023-08-07T04:57:59.090Z,14.05
2023-08-07T05:00:31.153Z,14.07
2023-08-07T05:03:03.407Z,14.08
2023-08-07T05:05:35.253Z,14.09
2023-08-07T05:08:07.543Z,14.08
2023-08-07T05:10:38.979Z,14.07
2023-08-07T05:13:10.461Z,14.05
2023-08-07T05:15:41.941Z,14.04
2023-08-07T05:18:13.355Z,14.03
2023-08-07T05:20:45.082Z,14.06
2023-08-07T05:23:16.560Z,14.06
2023-08-07T05:25:50.138Z,14.06
2023-08-07T05:28:21.645Z,14.08
2023-08-07T05:30:53.176Z,14.08
2023-08-07T05:33:24.827Z,14.08
2023-08-07T05:35:56.688Z,14.07
2023-08-07T05:38:28.149Z,14.06
2023-08-07T05:40:59.704Z,14.05
2023-08-07T05:43:31.236Z,14.03
2023-08-07T05:46:02.840Z,14.02
2023-08-07T05:48:34.433Z,14.01
2023-08-07T05:51:08.129Z,14.04
2023-08-07T05:53:39.847Z,14.04
2023-08-07T05:56:11.373Z,14.05
2023-08-07T05:58:43.000Z,14.04
2023-08-07T06:01:15.864Z,14.04
2023-08-07T06:03:47.658Z,14.03
2023-08-07T06:06:20.247Z,14.02
2023-08-07T06:08:51.869Z,14.02
2023-08-07T06:11:23.420Z,14.03
2023-08-07T06:13:54.915Z,14.02
2023-08-07T06:16:26.564Z,14.09
2023-08-07T06:18:58.244Z,14.11
2023-08-07T06:21:30.458Z,14.11
2023-08-07T06:24:02.018Z,14.12
2023-08-07T06:26:33.603Z,14.13
2023-08-07T06:29:05.341Z,14.14
2023-08-07T06:31:36.990Z,14.12
2023-08-07T06:34:08.541Z,14.12
2023-08-07T06:36:40.407Z,14.10
2023-08-07T06:39:11.857Z,14.10
2023-08-07T06:41:43.342Z,14.13
2023-08-07T06:44:14.786Z,14.15
2023-08-07T06:46:46.352Z,14.19
2023-08-07T06:49:17.794Z,14.22
2023-08-07T06:51:49.301Z,14.24
2023-08-07T06:54:20.830Z,14.24
2023-08-07T06:56:52.384Z,14.25
2023-08-07T06:59:25.035Z,14.25
2023-08-07T07:01:55.506Z,14.23
2023-08-07T07:04:27.471Z,14.22
2023-08-07T07:06:58.977Z,14.20
2023-08-07T07:09:30.774Z,14.19
2023-08-07T07:12:02.251Z,14.21
2023-08-07T07:14:34.727Z,14.23
2023-08-07T07:17:05.175Z,14.24
2023-08-07T07:19:36.666Z,14.26
2023-08-07T07:22:08.955Z,14.24
2023-08-07T07:24:40.737Z,14.23
2023-08-07T07:27:12.280Z,14.25
2023-08-07T07:29:43.777Z,14.26
2023-08-07T07:32:15.323Z,14.27
2023-08-07T07:34:47.035Z,14.29
2023-08-07T07:37:18.443Z,14.29
2023-08-07T07:39:49.850Z,14.29
2023-08-07T07:42:21.521Z,14.31
2023-08-07T07:44:53.057Z,14.34
2023-08-07T07:47:24.481Z,14.38
2023-08-07T07:50:09.589Z,14.41
2023-08-07T07:52:41.407Z,14.44
2023-08-07T07:55:14.981Z,14.45
2023-08-07T07:57:46.489Z,14.47
2023-08-07T08:00:20.186Z,14.48
2023-08-07T08:02:51.958Z,14.50
2023-08-07T08:05:23.444Z,14.51
2023-08-07T08:07:55.214Z,14.52
2023-08-07T08:10:27.135Z,14.53
2023-08-07T08:12:59.508Z,14.57
2023-08-07T08:15:31.229Z,14.62
2023-08-07T08:18:03.205Z,14.65
2023-08-07T08:20:34.907Z,14.67
2023-08-07T08:23:06.730Z,14.70
2023-08-07T08:25:38.231Z,14.72
2023-08-07T08:28:09.885Z,14.74
2023-08-07T08:30:41.420Z,14.76
2023-08-07T08:33:15.615Z,14.78
2023-08-07T08:35:47.522Z,14.79
2023-08-07T08:38:21.704Z,14.79
2023-08-07T08:40:55.284Z,14.81
2023-08-07T08:43:28.911Z,14.84
2023-08-07T08:46:01.526Z,14.88
2023-08-07T08:48:36.760Z,14.89
2023-08-07T08:51:10.440Z,14.90
2023-08-07T08:53:42.866Z,14.93
2023-08-07T08:56:15.137Z,14.93
2023-08-07T08:58:46.795Z,14.92
2023-08-07T09:01:19.304Z,14.93
2023-08-07T09:03:53.369Z,14.94
2023-08-07T09:06:25.796Z,14.97
2023-08-07T09:09:00.213Z,14.98
2023-08-07T09:11:34.247Z,14.97
2023-08-07T09:14:06.252Z,14.98
2023-08-07T09:16:38.220Z,14.97
2023-08-07T09:19:10.141Z,14.99
2023-08-07T09:21:41.710Z,15.01
2023-08-07T09:24:13.645Z,15.04
2023-08-07T09:26:46.618Z,15.12
2023-08-07T09:29:18.261Z,15.19
2023-08-07T09:31:49.904Z,15.25
2023-08-07T09:34:24.304Z,15.31
2023-08-07T09:36:56.050Z,15.35
2023-08-07T09:39:30.928Z,15.35
2023-08-07T09:42:02.822Z,15.36
2023-08-07T09:44:40.169Z,15.38
2023-08-07T09:47:20.651Z,15.44
2023-08-07T09:49:57.933Z,15.46
2023-08-07T09:52:29.483Z,15.54
2023-08-07T09:55:01.347Z,15.58
2023-08-07T09:57:34.046Z,15.60
2023-08-07T10:00:13.075Z,15.59
2023-08-07T10:02:45.094Z,15.60
2023-08-07T10:05:17.842Z,15.61
2023-08-07T10:07:48.104Z,15.62
2023-08-07T10:10:20.560Z,15.63
2023-08-07T10:12:52.443Z,15.63
2023-08-07T10:15:25.444Z,15.69
2023-08-07T10:17:57.147Z,15.73
2023-08-07T10:20:30.712Z,15.76
2023-08-07T10:23:07.807Z,15.81
2023-08-07T10:25:41.720Z,15.88
2023-08-07T10:28:18.638Z,15.92
2023-08-07T10:30:50.853Z,15.95
2023-08-07T10:33:23.038Z,15.95
2023-08-07T10:35:55.679Z,15.95
2023-08-07T10:38:25.742Z,15.97
2023-08-07T10:41:07.791Z,15.98
2023-08-07T10:43:43.089Z,15.98
2023-08-07T10:46:24.391Z,16.00
2023-08-07T10:48:59.435Z,16.03
2023-08-07T10:51:33.440Z,16.05
2023-08-07T10:54:05.875Z,16.05
2023-08-07T10:56:39.050Z,16.05
2023-08-07T10:59:14.598Z,16.06
2023-08-07T11:01:52.535Z,16.06
2023-08-07T11:04:27.163Z,16.06
2023-08-07T11:06:58.867Z,16.05
2023-08-07T11:09:30.667Z,16.06
2023-08-07T11:12:02.471Z,16.08
2023-08-07T11:14:35.105Z,16.17
2023-08-07T11:17:07.911Z,16.27
2023-08-07T11:19:40.471Z,16.34
2023-08-07T11:22:11.178Z,16.41
2023-08-07T11:24:41.208Z,16.46
2023-08-07T11:27:12.705Z,16.48
2023-08-07T11:29:47.257Z,16.49
2023-08-07T11:32:20.974Z,16.49
2023-08-07T11:34:53.513Z,16.53
2023-08-07T11:37:23.526Z,16.56
2023-08-07T11:40:01.381Z,16.58
2023-08-07T11:42:32.934Z,16.61
2023-08-07T11:45:05.883Z,16.65
2023-08-07T11:47:37.929Z,16.68
2023-08-07T11:50:11.870Z,16.72
2023-08-07T11:52:43.379Z,16.80
2023-08-07T11:55:17.620Z,16.87
2023-08-07T11:57:50.329Z,16.93
2023-08-07T12:00:22.132Z,16.98
2023-08-07T12:02:53.781Z,17.03
2023-08-07T12:05:25.725Z,17.04
2023-08-07T12:07:57.292Z,17.04
2023-08-07T12:10:29.072Z,17.04
2023-08-07T12:13:05.991Z,17.02
2023-08-07T12:15:39.585Z,16.94
2023-08-07T12:18:14.347Z,16.85
2023-08-07T12:20:46.261Z,16.72
2023-08-07T12:23:19.885Z,16.64
2023-08-07T12:25:51.421Z,16.58
2023-08-07T12:28:23.961Z,16.55
2023-08-07T12:30:54.169Z,16.53
2023-08-07T12:33:26.071Z,16.56
2023-08-07T12:35:58.629Z,16.54
2023-08-07T12:38:30.700Z,16.52
2023-08-07T12:41:04.442Z,16.48
2023-08-07T12:43:36.038Z,16.45
2023-08-07T12:48:42.046Z,16.43
2023-08-07T12:51:13.800Z,16.47
2023-08-07T12:53:46.633Z,16.55
2023-08-07T12:56:18.270Z,16.65
2023-08-07T12:58:51.436Z,16.72
2023-08-07T13:01:23.022Z,16.83
2023-08-07T13:03:54.927Z,16.95
2023-08-07T13:06:26.580Z,17.05
2023-08-07T13:08:58.270Z,17.18
2023-08-07T13:11:29.969Z,17.32
2023-08-07T13:14:01.690Z,17.44
2023-08-07T13:16:33.388Z,17.50
2023-08-07T13:19:05.730Z,17.57
2023-08-07T13:21:37.686Z,17.64
2023-08-07T13:24:09.768Z,17.65
2023-08-07T13:26:45.974Z,17.62
2023-08-07T13:29:17.766Z,17.54
2023-08-07T13:31:49.589Z,17.42
2023-08-07T13:34:21.153Z,17.30
2023-08-07T13:36:53.706Z,17.19
2023-08-07T13:39:25.222Z,17.11
2023-08-07T13:41:57.778Z,17.05
2023-08-07T13:44:29.567Z,17.03
2023-08-07T13:47:01.097Z,17.03
2023-08-07T13:49:32.541Z,17.06
2023-08-07T13:52:04.231Z,17.12
2023-08-07T13:54:35.901Z,17.19
2023-08-07T13:57:08.839Z,17.27
2023-08-07T13:59:41.215Z,17.35
2023-08-07T14:02:13.167Z,17.43
2023-08-07T14:04:46.452Z,17.48
2023-08-07T14:07:18.527Z,17.54
2023-08-07T14:09:50.223Z,17.56
2023-08-07T14:12:21.730Z,17.56
2023-08-07T14:14:53.313Z,17.53
2023-08-07T14:17:24.894Z,17.46
2023-08-07T14:19:56.461Z,17.43
2023-08-07T14:22:28.034Z,17.36
2023-08-07T14:24:59.632Z,17.26
2023-08-07T14:27:31.143Z,17.22
2023-08-07T14:30:02.753Z,17.17
2023-08-07T14:32:34.271Z,17.11
2023-08-07T14:35:07.156Z,17.07
2023-08-07T14:37:38.688Z,17.06
2023-08-07T14:40:12.199Z,17.04
2023-08-07T14:42:43.915Z,17.06
2023-08-07T14:45:16.813Z,17.07
2023-08-07T14:47:48.395Z,17.11
2023-08-07T14:50:20.389Z,17.16
2023-08-07T14:52:51.919Z,17.19
2023-08-07T14:55:23.437Z,17.23
2023-08-07T14:57:55.196Z,17.26
2023-08-07T15:00:26.788Z,17.31
2023-08-07T15:03:00.180Z,17.37
2023-08-07T15:05:32.069Z,17.43
2023-08-07T15:08:04.035Z,17.50
2023-08-07T15:10:36.552Z,17.58
2023-08-07T15:13:06.651Z,17.68
2023-08-07T15:15:38.435Z,17.76
2023-08-07T15:18:10.006Z,17.82
2023-08-07T15:20:41.717Z,17.87
2023-08-07T15:23:13.378Z,17.93
2023-08-07T15:25:45.538Z,17.98
2023-08-07T15:28:17.256Z,18.01
2023-08-07T15:30:53.741Z,18.07
2023-08-07T15:33:25.503Z,18.12
2023-08-07T15:35:58.452Z,18.17
2023-08-07T15:38:30.350Z,18.23
2023-08-07T15:41:01.887Z,18.28
2023-08-07T15:43:33.368Z,18.33
2023-08-07T15:46:05.012Z,18.37
2023-08-07T15:48:36.642Z,18.41
2023-08-07T15:51:08.351Z,18.45
2023-08-07T15:53:39.919Z,18.48
2023-08-07T15:56:11.446Z,18.51
2023-08-07T15:58:43.120Z,18.49
2023-08-07T16:01:14.761Z,18.47
2023-08-07T16:03:46.545Z,18.47
2023-08-07T16:06:19.783Z,18.46
2023-08-07T16:08:51.277Z,18.45
2023-08-07T16:11:22.965Z,18.44
2023-08-07T16:13:54.662Z,18.44
2023-08-07T16:16:26.514Z,18.45
2023-08-07T16:18:58.006Z,18.46
2023-08-07T16:21:29.594Z,18.46
2023-08-07T16:24:01.122Z,18.47
2023-08-07T16:26:32.728Z,18.47
2023-08-07T16:29:04.385Z,18.46
2023-08-07T16:31:36.004Z,18.44
2023-08-07T16:34:07.527Z,18.41
2023-08-07T16:36:39.067Z,18.38
2023-08-07T16:39:10.719Z,18.36
2023-08-07T16:41:46.586Z,18.35
2023-08-07T16:44:18.615Z,18.33
2023-08-07T16:46:50.474Z,18.31
2023-08-07T16:49:21.941Z,18.27
2023-08-07T16:51:59.122Z,18.25
2023-08-07T16:54:30.929Z,18.25
2023-08-07T16:57:03.810Z,18.25
2023-08-07T16:59:35.290Z,18.26
2023-08-07T17:02:08.501Z,18.25
2023-08-07T17:04:40.604Z,18.22
2023-08-07T17:07:12.268Z,18.19
2023-08-07T17:09:43.744Z,18.18
2023-08-07T17:12:15.209Z,18.15
2023-08-07T17:14:46.805Z,18.13
2023-08-07T17:17:18.374Z,18.12
2023-08-07T17:19:50.119Z,18.10
2023-08-07T17:22:21.748Z,18.08
2023-08-07T17:24:53.481Z,18.05
2023-08-07T17:27:25.211Z,18.03
2023-08-07T17:29:56.787Z,18.00
2023-08-07T17:32:28.288Z,17.98
2023-08-07T17:35:01.547Z,17.96
2023-08-07T17:37:33.090Z,17.92
2023-08-07T17:40:06.141Z,17.88
2023-08-07T17:42:37.691Z,17.83
2023-08-07T17:45:11.700Z,17.76
2023-08-07T17:47:44.344Z,17.70
2023-08-07T17:50:16.464Z,17.65
2023-08-07T17:52:48.080Z,17.60
2023-08-07T17:55:19.865Z,17.55
2023-08-07T17:57:51.425Z,17.51
2023-08-07T18:00:23.714Z,17.47
2023-08-07T18:02:55.644Z,17.42
2023-08-07T18:05:27.419Z,17.38
2023-08-07T18:07:59.557Z,17.35
2023-08-07T18:10:32.132Z,17.31
2023-08-07T18:13:02.217Z,17.28
2023-08-07T18:15:33.874Z,17.23
2023-08-07T18:18:05.762Z,17.20
2023-08-07T18:20:37.566Z,17.16
2023-08-07T18:23:09.115Z,17.11
2023-08-07T18:25:40.702Z,17.06
2023-08-07T18:28:12.369Z,17.02
2023-08-07T18:30:44.091Z,16.97
2023-08-07T18:33:15.932Z,16.92
2023-08-07T18:35:48.931Z,16.88
2023-08-07T18:38:20.885Z,16.86
2023-08-07T18:40:52.435Z,16.84
2023-08-07T18:43:23.988Z,16.81
2023-08-07T18:45:55.485Z,16.77
2023-08-07T18:48:27.054Z,16.73
2023-08-07T18:50:58.917Z,16.71
2023-08-07T18:53:30.394Z,16.65
2023-08-07T18:56:01.860Z,16.65
2023-08-07T18:58:35.130Z,16.62
2023-08-07T19:01:06.764Z,16.58
2023-08-07T19:03:38.473Z,16.55
2023-08-07T19:06:11.281Z,16.51
2023-08-07T19:08:42.214Z,16.48
2023-08-07T19:11:13.857Z,16.44
2023-08-07T19:13:46.017Z,16.42
2023-08-07T19:16:18.022Z,16.39
2023-08-07T19:18:49.723Z,16.37
2023-08-07T19:21:34.840Z,16.34
2023-08-07T19:24:12.613Z,16.30
2023-08-07T19:26:45.107Z,16.27
2023-08-07T19:29:16.689Z,16.23
2023-08-07T19:31:48.229Z,16.20
2023-08-07T19:34:19.986Z,16.17
2023-08-07T19:37:02.133Z,16.14
2023-08-07T19:39:34.783Z,16.11
2023-08-07T19:42:07.275Z,16.08
2023-08-07T19:44:39.066Z,16.06
2023-08-07T19:47:14.223Z,16.04
2023-08-07T19:49:54.043Z,16.01
2023-08-07T19:52:26.104Z,16.00
2023-08-07T19:54:57.746Z,15.96
2023-08-07T19:57:29.310Z,15.92
2023-08-07T20:00:01.912Z,15.87
2023-08-07T20:02:34.583Z,15.81
2023-08-07T20:05:05.388Z,15.75
2023-08-07T20:07:35.348Z,15.71
2023-08-07T20:10:10.901Z,15.65
2023-08-07T20:12:43.470Z,15.54
2023-08-07T20:15:17.040Z,15.46
2023-08-07T20:17:50.129Z,15.41
2023-08-07T20:20:23.055Z,15.34
2023-08-07T20:22:54.664Z,15.28
2023-08-07T20:25:27.056Z,15.26
2023-08-07T20:28:02.062Z,15.29
2023-08-07T20:30:33.916Z,15.28
2023-08-07T20:33:05.594Z,15.23
2023-08-07T20:35:37.249Z,15.18
2023-08-07T20:38:08.904Z,15.15
2023-08-07T20:40:42.646Z,15.13
2023-08-07T20:43:14.421Z,15.08
2023-08-07T20:45:46.648Z,15.03
2023-08-07T20:48:19.712Z,14.98
2023-08-07T20:50:52.132Z,14.91
2023-08-07T20:53:26.285Z,14.84
2023-08-07T20:55:58.039Z,14.79
2023-08-07T20:58:31.606Z,14.71
2023-08-07T21:01:03.507Z,14.62
2023-08-07T21:03:40.832Z,14.49
2023-08-07T21:06:17.070Z,14.37
2023-08-07T21:08:55.480Z,14.24
2023-08-07T21:11:30.288Z,14.18
2023-08-07T21:14:02.780Z,14.10
2023-08-07T21:16:34.466Z,14.02
2023-08-07T21:19:06.259Z,13.93
2023-08-07T21:21:37.894Z,13.85
2023-08-07T21:24:13.315Z,13.78
2023-08-07T21:26:45.080Z,13.68
2023-08-07T21:29:16.905Z,13.58
2023-08-07T21:31:53.171Z,13.51
2023-08-07T21:34:26.510Z,13.48
2023-08-07T21:37:00.981Z,13.45
2023-08-07T21:39:34.296Z,13.50
2023-08-07T21:42:08.880Z,13.55
2023-08-07T21:44:41.742Z,13.56
2023-08-07T21:47:13.757Z,13.50
2023-08-07T21:49:45.264Z,13.42
2023-08-07T21:52:28.738Z,13.35
2023-08-07T21:55:00.252Z,13.27
2023-08-07T21:57:31.731Z,13.17
2023-08-07T22:00:04.723Z,13.08
2023-08-07T22:02:36.307Z,13.05
2023-08-07T22:05:09.343Z,13.00
2023-08-07T22:07:41.261Z,12.95
2023-08-07T22:10:14.422Z,12.89
2023-08-07T22:12:46.943Z,12.84
2023-08-07T22:15:18.762Z,12.80
2023-08-07T22:17:50.394Z,12.77
2023-08-07T22:20:22.889Z,12.74
2023-08-07T22:22:54.433Z,12.72
2023-08-07T22:25:26.290Z,12.72
2023-08-07T22:27:57.815Z,12.70
2023-08-07T22:30:29.499Z,12.71
2023-08-07T22:33:03.416Z,12.67
2023-08-07T22:35:38.770Z,12.65
2023-08-07T22:38:10.281Z,12.63
2023-08-07T22:40:43.024Z,12.63
2023-08-07T22:43:15.379Z,12.67
2023-08-07T22:45:50.012Z,12.69
2023-08-07T22:48:21.599Z,12.70
2023-08-07T22:50:53.580Z,12.73
2023-08-07T22:53:25.077Z,12.79
2023-08-07T22:55:57.027Z,12.78
2023-08-07T22:58:30.756Z,12.73
2023-08-07T23:01:04.820Z,12.68
2023-08-07T23:03:36.518Z,12.69
2023-08-07T23:06:11.600Z,12.69
2023-08-07T23:08:43.184Z,12.66
2023-08-07T23:11:14.657Z,12.58
2023-08-07T23:13:47.958Z,12.51
2023-08-07T23:16:21.062Z,12.49
2023-08-07T23:18:52.730Z,12.53
2023-08-07T23:21:34.795Z,12.55
2023-08-07T23:24:15.567Z,12.57
2023-08-07T23:26:47.125Z,12.64
2023-08-07T23:29:18.777Z,12.70
2023-08-07T23:31:52.666Z,12.75
2023-08-07T23:34:24.850Z,12.80
2023-08-07T23:36:56.341Z,12.80
2023-08-07T23:39:27.958Z,12.83
2023-08-07T23:42:01.343Z,12.81
2023-08-07T23:44:33.248Z,12.72
2023-08-07T23:47:05.973Z,12.60
2023-08-07T23:49:37.904Z,12.50
2023-08-07T23:52:10.055Z,12.44
2023-08-07T23:54:41.573Z,12.41
2023-08-07T23:57:13.071Z,12.36
2023-08-07T23:59:44.580Z,12.30
